createdAt,value
2018-07-09T00:01:05.653Z,1.50
2018-07-09T00:03:35.096Z,1.30
2018-07-09T00:06:04.479Z,1.37
2018-07-09T00:08:33.889Z,1.30
2018-07-09T00:11:08.034Z,1.42
2018-07-09T00:13:38.307Z,1.40
2018-07-09T00:16:07.716Z,1.50
2018-07-09T00:18:36.877Z,1.32
2018-07-09T00:21:06.221Z,1.50
2018-07-09T00:23:35.272Z,1.50
2018-07-09T00:26:04.508Z,1.30
2018-07-09T00:28:33.772Z,1.47
2018-07-09T00:31:03.122Z,1.60
2018-07-09T00:33:32.282Z,1.40
2018-07-09T00:36:04.382Z,1.40
2018-07-09T00:38:33.780Z,1.40
2018-07-09T00:41:03.128Z,1.47
2018-07-09T00:43:32.400Z,1.40
2018-07-09T00:46:01.653Z,1.30
2018-07-09T00:48:30.920Z,1.10
2018-07-09T00:51:00.178Z,1.30
2018-07-09T00:53:29.320Z,1.50
2018-07-09T00:55:58.604Z,1.40
2018-07-09T00:58:28.113Z,1.30
2018-07-09T01:00:57.436Z,1.20
2018-07-09T01:03:26.601Z,1.55
2018-07-09T01:05:56.108Z,1.60
2018-07-09T01:08:25.229Z,1.40
2018-07-09T01:11:05.238Z,1.30
2018-07-09T01:13:44.552Z,1.47
2018-07-09T01:16:13.896Z,1.32
2018-07-09T01:18:43.621Z,1.70
2018-07-09T01:21:14.010Z,1.50
2018-07-09T01:23:43.284Z,1.40
2018-07-09T01:26:12.570Z,1.47
2018-07-09T01:28:42.616Z,1.50
2018-07-09T01:31:12.216Z,1.30
2018-07-09T01:33:41.552Z,1.50
2018-07-09T01:36:10.741Z,1.72
2018-07-09T01:38:40.151Z,1.60
2018-07-09T01:41:09.673Z,1.60
2018-07-09T01:43:38.996Z,1.25
2018-07-09T01:46:08.144Z,1.60
2018-07-09T01:48:37.712Z,1.20
2018-07-09T01:51:07.456Z,1.32
2018-07-09T01:53:36.649Z,1.50
2018-07-09T01:56:06.321Z,1.67
2018-07-09T01:58:35.673Z,1.50
2018-07-09T02:01:04.949Z,1.37
2018-07-09T02:03:34.661Z,1.50
2018-07-09T02:06:04.042Z,1.20
2018-07-09T02:08:33.447Z,1.40
2018-07-09T02:11:02.647Z,1.50
2018-07-09T02:13:32.086Z,1.40
2018-07-09T02:16:01.358Z,1.52
2018-07-09T02:18:31.176Z,1.60
2018-07-09T02:21:00.353Z,1.20
2018-07-09T02:23:29.596Z,1.25
2018-07-09T02:25:58.865Z,1.50
2018-07-09T02:28:28.036Z,1.47
2018-07-09T02:30:57.577Z,1.60
2018-07-09T02:33:26.929Z,1.60
2018-07-09T02:35:56.105Z,1.50
2018-07-09T02:38:25.391Z,1.70
2018-07-09T02:40:54.555Z,1.67
2018-07-09T02:43:23.618Z,1.60
2018-07-09T02:45:52.968Z,1.98
2018-07-09T02:48:22.157Z,2.00
2018-07-09T02:50:51.608Z,1.70
2018-07-09T02:53:20.668Z,1.40
2018-07-09T02:55:49.925Z,1.47
2018-07-09T02:58:18.998Z,1.90
2018-07-09T03:00:48.248Z,1.50
2018-07-09T03:03:17.544Z,1.83
2018-07-09T03:05:46.874Z,1.70
2018-07-09T03:08:16.237Z,1.82
2018-07-09T03:10:45.597Z,1.85
2018-07-09T03:13:14.988Z,1.60
2018-07-09T03:15:44.436Z,1.75
2018-07-09T03:18:13.866Z,1.55
2018-07-09T03:20:43.370Z,1.80
2018-07-09T03:23:12.197Z,1.70
2018-07-09T03:25:41.764Z,1.70
2018-07-09T03:28:11.116Z,1.80
2018-07-09T03:30:40.630Z,1.90
2018-07-09T03:33:10.000Z,1.67
2018-07-09T03:35:39.449Z,1.72
2018-07-09T03:38:08.777Z,1.80
2018-07-09T03:40:37.456Z,1.85
2018-07-09T03:43:06.748Z,1.62
2018-07-09T03:45:36.058Z,1.62
2018-07-09T03:48:05.580Z,2.00
2018-07-09T03:50:34.849Z,1.75
2018-07-09T03:53:04.188Z,2.03
2018-07-09T03:55:33.281Z,1.90
2018-07-09T03:58:02.617Z,2.30
2018-07-09T04:00:31.784Z,1.90
2018-07-09T04:03:00.924Z,2.40
2018-07-09T04:05:30.249Z,2.27
2018-07-09T04:07:59.466Z,2.07
2018-07-09T04:10:28.624Z,2.35
2018-07-09T04:12:57.669Z,1.80
2018-07-09T04:15:26.992Z,2.20
2018-07-09T04:17:56.301Z,2.50
2018-07-09T04:20:25.464Z,2.42
2018-07-09T04:22:54.826Z,2.20
2018-07-09T04:25:24.190Z,2.80
2018-07-09T04:27:53.436Z,2.60
2018-07-09T04:30:22.933Z,2.47
2018-07-09T04:32:52.160Z,2.40
2018-07-09T04:35:21.332Z,2.23
2018-07-09T04:37:50.367Z,2.12
2018-07-09T04:40:19.549Z,2.83
2018-07-09T04:42:48.700Z,2.20
2018-07-09T04:45:17.875Z,2.50
2018-07-09T04:47:47.270Z,2.60
2018-07-09T04:50:16.503Z,2.70
2018-07-09T04:52:45.752Z,2.80
2018-07-09T04:55:14.957Z,3.00
2018-07-09T04:57:44.372Z,2.42
2018-07-09T05:00:13.576Z,2.60
2018-07-09T05:02:42.765Z,3.02
2018-07-09T05:05:12.112Z,2.75
2018-07-09T05:07:41.368Z,3.23
2018-07-09T05:10:10.625Z,2.90
2018-07-09T05:12:39.804Z,2.40
2018-07-09T05:15:09.060Z,2.40
2018-07-09T05:17:38.528Z,2.83
2018-07-09T05:20:08.154Z,2.62
2018-07-09T05:22:37.779Z,2.47
2018-07-09T05:25:06.968Z,2.77
2018-07-09T05:27:36.236Z,2.77
2018-07-09T05:30:05.681Z,2.80
2018-07-09T05:32:35.000Z,3.00
2018-07-09T05:35:04.404Z,3.20
2018-07-09T05:37:33.693Z,3.58
2018-07-09T05:40:03.189Z,3.15
2018-07-09T05:42:32.572Z,3.15
2018-07-09T05:45:01.976Z,3.08
2018-07-09T05:47:31.206Z,2.80
2018-07-09T05:50:00.461Z,3.30
2018-07-09T05:52:29.818Z,2.70
2018-07-09T05:54:59.195Z,2.50
2018-07-09T05:57:28.630Z,3.40
2018-07-09T05:59:57.800Z,2.90
2018-07-09T06:02:26.960Z,3.10
2018-07-09T06:04:56.120Z,2.70
2018-07-09T06:07:25.564Z,2.90
2018-07-09T06:09:54.740Z,3.00
2018-07-09T06:12:23.909Z,2.70
2018-07-09T06:14:53.268Z,2.62
2018-07-09T06:17:22.724Z,2.65
2018-07-09T06:19:51.880Z,2.50
2018-07-09T06:22:21.314Z,2.40
2018-07-09T06:24:50.696Z,2.50
2018-07-09T06:27:20.135Z,2.20
2018-07-09T06:29:49.827Z,2.13
2018-07-09T06:32:19.164Z,2.40
2018-07-09T06:34:48.538Z,2.05
2018-07-09T06:37:18.140Z,2.20
2018-07-09T06:39:47.442Z,2.20
2018-07-09T06:42:16.673Z,2.08
2018-07-09T06:44:46.589Z,2.07
2018-07-09T06:47:16.049Z,2.10
2018-07-09T06:49:45.292Z,1.90
2018-07-09T06:52:14.464Z,1.90
2018-07-09T06:54:43.868Z,2.00
2018-07-09T06:57:13.009Z,1.90
2018-07-09T06:59:42.326Z,2.00
2018-07-09T07:02:11.573Z,1.92
2018-07-09T07:04:40.907Z,2.10
2018-07-09T07:07:10.285Z,1.80
2018-07-09T07:09:39.651Z,2.12
2018-07-09T07:12:08.920Z,2.02
2018-07-09T07:14:37.699Z,2.00
2018-07-09T07:17:06.984Z,1.95
2018-07-09T07:19:36.449Z,2.02
2018-07-09T07:22:05.633Z,1.90
2018-07-09T07:24:34.863Z,1.87
2018-07-09T07:27:04.073Z,2.20
2018-07-09T07:29:33.220Z,1.80
2018-07-09T07:32:02.628Z,1.75
2018-07-09T07:34:31.985Z,1.80
2018-07-09T07:37:01.322Z,2.00
2018-07-09T07:39:30.497Z,1.90
2018-07-09T07:41:59.860Z,1.90
2018-07-09T07:44:29.076Z,2.17
2018-07-09T07:46:58.470Z,1.70
2018-07-09T07:49:27.736Z,1.80
2018-07-09T07:51:57.267Z,1.67
2018-07-09T07:54:26.711Z,1.67
2018-07-09T07:56:55.985Z,1.40
2018-07-09T07:59:25.195Z,1.60
2018-07-09T08:01:54.438Z,1.43
2018-07-09T08:04:24.053Z,1.40
2018-07-09T08:06:53.363Z,1.40
2018-07-09T08:09:22.654Z,1.60
2018-07-09T08:11:51.974Z,1.70
2018-07-09T08:14:21.248Z,1.40
2018-07-09T08:16:50.404Z,1.57
2018-07-09T08:19:19.796Z,1.60
2018-07-09T08:21:49.072Z,1.62
2018-07-09T08:24:18.376Z,1.57
2018-07-09T08:26:47.803Z,1.57
2018-07-09T08:29:17.122Z,1.50
2018-07-09T08:31:46.271Z,1.60
2018-07-09T08:34:15.540Z,1.30
2018-07-09T08:36:44.808Z,1.50
2018-07-09T08:39:14.128Z,1.50
2018-07-09T08:41:43.485Z,1.40
2018-07-09T08:44:12.840Z,1.40
2018-07-09T08:46:42.104Z,1.52
2018-07-09T08:49:11.385Z,1.40
2018-07-09T08:51:40.425Z,1.40
2018-07-09T08:54:09.936Z,1.60
2018-07-09T08:56:39.116Z,1.40
2018-07-09T08:59:08.392Z,1.60
2018-07-09T09:01:37.396Z,1.53
2018-07-09T09:04:06.762Z,1.57
2018-07-09T09:06:35.861Z,1.50
2018-07-09T09:09:05.854Z,1.30
2018-07-09T09:11:35.131Z,1.20
2018-07-09T09:14:04.344Z,1.30
2018-07-09T09:16:33.719Z,1.30
2018-07-09T09:19:02.869Z,1.32
2018-07-09T09:21:32.172Z,1.47
2018-07-09T09:24:01.002Z,1.70
2018-07-09T09:26:30.205Z,1.50
2018-07-09T09:28:58.879Z,1.50
2018-07-09T09:31:28.082Z,1.60
2018-07-09T09:33:57.402Z,1.62
2018-07-09T09:36:26.740Z,1.77
2018-07-09T09:38:56.048Z,1.90
2018-07-09T09:41:25.335Z,1.98
2018-07-09T09:43:54.808Z,1.67
2018-07-09T09:46:24.291Z,1.70
2018-07-09T09:48:53.397Z,1.90
2018-07-09T09:51:22.685Z,1.98
2018-07-09T09:53:51.884Z,2.13
2018-07-09T09:56:21.382Z,2.37
2018-07-09T09:58:50.612Z,2.33
2018-07-09T10:01:20.080Z,2.40
2018-07-09T10:03:49.372Z,2.10
2018-07-09T10:06:18.631Z,2.00
2018-07-09T10:08:47.877Z,2.20
2018-07-09T10:11:17.190Z,2.10
2018-07-09T10:13:46.618Z,2.17
2018-07-09T10:16:15.824Z,2.22
2018-07-09T10:18:45.009Z,2.35
2018-07-09T10:21:14.174Z,2.30
2018-07-09T10:23:43.460Z,2.80
2018-07-09T10:26:12.612Z,2.10
2018-07-09T10:28:41.904Z,2.30
2018-07-09T10:33:05.792Z,2.40
2018-07-09T10:35:35.064Z,2.40
2018-07-09T10:38:04.444Z,2.10
2018-07-09T10:40:33.453Z,2.10
2018-07-09T10:43:02.689Z,1.87
2018-07-09T10:45:31.962Z,1.70
2018-07-09T10:48:01.173Z,2.00
2018-07-09T10:50:30.426Z,1.40
2018-07-09T10:52:59.533Z,1.60
2018-07-09T10:55:28.833Z,1.60
2018-07-09T10:57:58.193Z,1.57
2018-07-09T11:00:27.485Z,1.47
2018-07-09T11:02:56.860Z,1.30
2018-07-09T11:05:26.272Z,1.25
2018-07-09T11:07:55.587Z,1.60
2018-07-09T11:10:24.989Z,1.37
2018-07-09T11:12:54.209Z,1.50
2018-07-09T11:15:23.473Z,1.20
2018-07-09T11:17:52.648Z,1.20
2018-07-09T11:20:21.428Z,1.00
2018-07-09T11:22:50.837Z,1.40
2018-07-09T11:25:19.945Z,1.10
2018-07-09T11:27:49.034Z,1.20
2018-07-09T11:30:18.200Z,1.02
2018-07-09T11:32:47.480Z,1.07
2018-07-09T11:35:16.742Z,1.20
2018-07-09T11:37:46.049Z,1.40
2018-07-09T11:40:15.393Z,1.40
2018-07-09T11:42:44.681Z,1.40
2018-07-09T11:45:13.952Z,1.50
2018-07-09T11:47:43.123Z,1.10
2018-07-09T11:50:12.493Z,1.20
2018-07-09T11:52:41.925Z,1.50
2018-07-09T11:55:11.348Z,1.30
2018-07-09T11:57:40.841Z,1.35
2018-07-09T12:00:10.089Z,1.15
2018-07-09T12:02:39.760Z,1.00
2018-07-09T12:05:09.156Z,1.20
2018-07-09T12:07:38.449Z,1.20
2018-07-09T12:10:07.615Z,1.37
2018-07-09T12:12:37.002Z,1.25
2018-07-09T12:15:06.460Z,1.20
2018-07-09T12:17:35.736Z,1.20
2018-07-09T12:20:05.121Z,1.00
2018-07-09T12:22:34.292Z,0.98
2018-07-09T12:25:03.512Z,0.98
2018-07-09T12:27:32.876Z,1.20
2018-07-09T12:30:02.121Z,1.27
2018-07-09T12:32:31.315Z,1.20
2018-07-09T12:35:00.504Z,1.37
2018-07-09T12:37:29.768Z,1.30
2018-07-09T12:39:58.952Z,1.40
2018-07-09T12:42:28.104Z,1.20
2018-07-09T12:44:57.191Z,1.20
2018-07-09T12:47:26.456Z,1.20
2018-07-09T12:49:55.639Z,1.10
2018-07-09T12:52:24.892Z,1.00
2018-07-09T12:54:54.367Z,1.25
2018-07-09T12:57:23.656Z,1.35
2018-07-09T12:59:52.733Z,1.57
2018-07-09T13:02:22.100Z,1.60
2018-07-09T13:04:51.388Z,1.40
2018-07-09T13:07:20.565Z,1.00
2018-07-09T13:09:49.876Z,1.10
2018-07-09T13:12:24.192Z,1.20
2018-07-09T13:14:53.405Z,1.10
2018-07-09T13:17:22.737Z,1.40
2018-07-09T13:19:52.209Z,1.33
2018-07-09T13:22:21.484Z,1.40
2018-07-09T13:24:51.120Z,1.25
2018-07-09T13:27:20.480Z,1.40
2018-07-09T13:29:49.808Z,1.33
2018-07-09T13:32:19.088Z,1.30
2018-07-09T13:34:48.453Z,1.33
2018-07-09T13:37:17.852Z,1.25
2018-07-09T13:39:47.100Z,1.30
2018-07-09T13:42:16.414Z,1.30
2018-07-09T13:44:45.956Z,1.30
2018-07-09T13:47:15.224Z,1.12
2018-07-09T13:49:44.509Z,1.20
2018-07-09T13:52:13.789Z,1.00
2018-07-09T13:54:43.259Z,0.90
2018-07-09T13:57:12.644Z,0.80
2018-07-09T13:59:41.406Z,0.88
2018-07-09T14:02:10.585Z,0.90
2018-07-09T14:04:40.060Z,1.00
2018-07-09T14:07:09.225Z,0.87
2018-07-09T14:09:38.458Z,0.90
2018-07-09T14:12:07.919Z,1.07
2018-07-09T14:14:37.204Z,0.90
2018-07-09T14:17:06.569Z,0.70
2018-07-09T14:20:41.240Z,0.68
2018-07-09T14:23:11.545Z,0.65
2018-07-09T14:25:40.920Z,0.60
2018-07-09T14:28:10.236Z,0.80
2018-07-09T14:30:39.532Z,0.78
2018-07-09T14:33:08.948Z,0.80
2018-07-09T14:35:38.072Z,1.12
2018-07-09T14:38:07.649Z,1.10
2018-07-09T14:40:36.921Z,0.98
2018-07-09T14:43:06.188Z,0.90
2018-07-09T14:45:35.520Z,0.90
2018-07-09T14:48:04.853Z,1.17
2018-07-09T14:50:34.016Z,1.10
2018-07-09T14:53:03.184Z,1.30
2018-07-09T14:55:32.363Z,1.20
2018-07-09T14:58:01.617Z,1.00
2018-07-09T15:00:30.805Z,1.10
2018-07-09T15:03:00.188Z,0.80
2018-07-09T15:05:29.401Z,0.80
2018-07-09T15:07:58.552Z,0.90
2018-07-09T15:10:27.737Z,1.10
2018-07-09T15:12:56.976Z,0.90
2018-07-09T15:15:26.392Z,0.90
2018-07-09T15:17:55.581Z,1.02
2018-07-09T15:20:24.723Z,1.00
2018-07-09T15:22:54.037Z,0.80
2018-07-09T15:25:23.280Z,0.67
2018-07-09T15:27:52.575Z,0.97
2018-07-09T15:30:21.831Z,0.85
2018-07-09T15:32:51.161Z,0.60
2018-07-09T15:35:20.368Z,0.62
2018-07-09T15:37:49.465Z,0.50
2018-07-09T15:40:18.827Z,0.80
2018-07-09T15:42:48.264Z,0.82
2018-07-09T15:45:17.484Z,0.88
2018-07-09T15:47:46.769Z,0.65
2018-07-09T15:50:16.140Z,0.62
2018-07-09T15:52:45.325Z,0.70
2018-07-09T15:55:14.887Z,0.70
2018-07-09T15:57:44.057Z,1.00
2018-07-09T16:00:12.997Z,0.70
2018-07-09T16:02:42.410Z,1.00
2018-07-09T16:05:11.648Z,0.90
2018-07-09T16:07:40.783Z,1.30
2018-07-09T16:10:09.976Z,0.88
2018-07-09T16:12:39.238Z,0.90
2018-07-09T16:15:08.565Z,0.90
2018-07-09T16:17:37.889Z,1.05
2018-07-09T16:20:07.272Z,1.20
2018-07-09T16:22:36.328Z,1.20
2018-07-09T16:25:05.659Z,0.93
2018-07-09T16:27:34.989Z,1.00
2018-07-09T16:30:04.257Z,1.10
2018-07-09T16:32:33.420Z,0.72
2018-07-09T16:35:02.648Z,0.98
2018-07-09T16:37:31.860Z,0.90
2018-07-09T16:40:01.053Z,0.93
2018-07-09T16:42:30.423Z,1.00
2018-07-09T16:44:59.611Z,0.80
2018-07-09T16:47:28.704Z,0.80
2018-07-09T16:49:57.844Z,0.90
2018-07-09T16:52:27.308Z,0.80
2018-07-09T16:54:56.412Z,0.90
2018-07-09T16:57:25.748Z,0.70
2018-07-09T16:59:54.924Z,0.90
2018-07-09T17:02:24.376Z,0.80
2018-07-09T17:04:53.839Z,0.80
2018-07-09T17:07:23.134Z,0.70
2018-07-09T17:09:52.495Z,0.80
2018-07-09T17:12:21.824Z,0.70
2018-07-09T17:14:51.149Z,1.00
2018-07-09T17:17:20.439Z,0.80
2018-07-09T17:19:49.856Z,0.80
2018-07-09T17:22:19.072Z,0.88
2018-07-09T17:24:48.232Z,0.80
2018-07-09T17:27:17.374Z,0.90
2018-07-09T17:29:46.576Z,0.80
2018-07-09T17:32:15.786Z,0.85
2018-07-09T17:34:45.127Z,0.90
2018-07-09T17:37:14.512Z,1.40
2018-07-09T17:39:44.083Z,1.25
2018-07-09T17:42:13.364Z,1.10
2018-07-09T17:44:42.532Z,1.20
2018-07-09T17:47:11.709Z,1.47
2018-07-09T17:49:40.784Z,1.60
2018-07-09T17:52:10.057Z,1.30
2018-07-09T17:54:39.276Z,1.20
2018-07-09T17:57:08.559Z,1.10
2018-07-09T17:59:37.833Z,1.10
2018-07-09T18:02:07.199Z,1.00
2018-07-09T18:04:36.368Z,1.15
2018-07-09T18:07:06.140Z,1.20
2018-07-09T18:09:35.992Z,1.30
2018-07-09T18:12:05.322Z,1.32
2018-07-09T18:14:34.528Z,1.47
2018-07-09T18:17:03.986Z,1.40
2018-07-09T18:19:33.159Z,1.70
2018-07-09T18:22:02.686Z,1.22
2018-07-09T18:24:32.040Z,1.10
2018-07-09T18:27:01.148Z,1.00
2018-07-09T18:29:30.549Z,0.93
2018-07-09T18:31:59.812Z,1.02
2018-07-09T18:34:28.960Z,0.90
2018-07-09T18:36:58.356Z,1.40
2018-07-09T18:39:27.559Z,1.25
2018-07-09T18:41:56.818Z,1.50
2018-07-09T18:44:26.089Z,1.70
2018-07-09T18:46:55.460Z,1.80
2018-07-09T18:49:24.992Z,1.35
2018-07-09T18:51:54.223Z,1.42
2018-07-09T18:54:23.500Z,1.30
2018-07-09T18:56:53.051Z,1.40
2018-07-09T18:59:22.494Z,1.50
2018-07-09T19:01:51.681Z,1.62
2018-07-09T19:04:21.150Z,1.80
2018-07-09T19:06:55.893Z,1.50
2018-07-09T19:09:26.091Z,1.60
2018-07-09T19:11:54.784Z,1.50
2018-07-09T19:14:27.213Z,1.47
2018-07-09T19:18:13.269Z,1.77
2018-07-09T19:21:30.355Z,2.35
2018-07-09T19:23:58.463Z,2.10
2018-07-09T19:26:26.231Z,1.75
2018-07-09T19:28:54.018Z,1.70
2018-07-09T19:31:22.088Z,1.67
2018-07-09T19:33:49.832Z,1.70
2018-07-09T19:36:17.870Z,1.20
2018-07-09T19:38:45.684Z,1.52
2018-07-09T19:41:13.554Z,1.30
2018-07-09T19:43:41.368Z,1.35
2018-07-09T19:46:09.520Z,1.40
2018-07-09T19:48:37.329Z,1.37
2018-07-09T19:51:05.226Z,1.65
2018-07-09T19:53:33.155Z,1.63
2018-07-09T19:56:01.024Z,1.65
2018-07-09T19:58:28.891Z,1.70
2018-07-09T20:00:56.606Z,1.90
2018-07-09T20:03:24.410Z,1.60
2018-07-09T20:05:52.362Z,1.77
2018-07-09T20:08:20.073Z,1.70
2018-07-09T20:10:52.884Z,1.80
2018-07-09T20:13:25.693Z,2.07
2018-07-09T20:15:58.574Z,1.80
2018-07-09T20:18:26.465Z,1.50
2018-07-09T20:20:54.322Z,1.60
2018-07-09T20:23:22.147Z,1.52
2018-07-09T20:25:49.944Z,1.60
2018-07-09T20:28:17.748Z,2.00
2018-07-09T20:30:45.602Z,2.25
2018-07-09T20:33:13.406Z,2.50
2018-07-09T20:35:41.325Z,2.30
2018-07-09T20:38:09.293Z,2.22
2018-07-09T20:40:36.939Z,2.17
2018-07-09T20:43:04.871Z,1.70
2018-07-09T20:45:32.679Z,1.70
2018-07-09T20:48:00.547Z,1.37
2018-07-09T20:50:28.256Z,1.50
2018-07-09T20:52:56.149Z,1.80
2018-07-09T20:55:23.910Z,1.37
2018-07-09T20:57:51.705Z,1.10
2018-07-09T21:00:19.417Z,1.27
2018-07-09T21:02:47.286Z,1.00
2018-07-09T21:05:14.992Z,1.10
2018-07-09T21:07:42.973Z,1.00
2018-07-09T21:10:10.653Z,1.15
2018-07-09T21:13:11.423Z,1.10
2018-07-09T21:15:39.079Z,1.25
2018-07-09T21:18:06.925Z,1.20
2018-07-09T21:20:34.717Z,1.20
2018-07-09T21:23:02.674Z,1.30
2018-07-09T21:25:30.386Z,1.30
2018-07-09T21:27:58.172Z,1.55
2018-07-09T21:30:26.145Z,1.37
2018-07-09T21:32:53.933Z,1.05
2018-07-09T21:35:21.640Z,1.20
2018-07-09T21:37:49.362Z,1.27
2018-07-09T21:40:17.221Z,1.40
2018-07-09T21:42:45.023Z,1.30
2018-07-09T21:45:12.984Z,1.20
2018-07-09T21:47:40.592Z,1.20
2018-07-09T21:50:08.397Z,1.10
2018-07-09T21:52:36.253Z,1.20
2018-07-09T21:55:04.270Z,1.20
2018-07-09T21:57:32.049Z,1.10
2018-07-09T21:59:59.940Z,1.30
2018-07-09T22:02:27.781Z,1.17
2018-07-09T22:04:55.601Z,1.00
2018-07-09T22:07:23.431Z,1.07
2018-07-09T22:09:51.282Z,1.32
2018-07-09T22:12:19.177Z,1.20
2018-07-09T22:14:46.984Z,1.35
2018-07-09T22:17:14.745Z,1.20
2018-07-09T22:19:42.603Z,1.20
2018-07-09T22:22:10.365Z,1.20
2018-07-09T22:24:38.247Z,1.32
2018-07-09T22:27:06.060Z,1.37
2018-07-09T22:29:33.840Z,1.30
2018-07-09T22:32:03.461Z,1.30
2018-07-09T22:34:32.752Z,1.20
2018-07-09T22:37:02.092Z,1.00
2018-07-09T22:39:31.477Z,1.20
2018-07-09T22:42:00.708Z,1.40
2018-07-09T22:44:30.026Z,1.50
2018-07-09T22:46:59.445Z,1.20
2018-07-09T22:49:28.836Z,1.17
2018-07-09T22:51:58.163Z,1.30
2018-07-09T22:54:27.454Z,1.20
2018-07-09T22:56:56.800Z,1.10
2018-07-09T22:59:26.179Z,1.20
2018-07-09T23:01:55.400Z,1.67
2018-07-09T23:04:24.596Z,1.60
2018-07-09T23:06:53.824Z,1.70
2018-07-09T23:09:49.772Z,1.70
2018-07-09T23:12:26.972Z,1.52
2018-07-09T23:16:37.881Z,1.40
2018-07-09T23:19:22.319Z,1.40
2018-07-09T23:22:25.860Z,1.45
2018-07-09T23:24:53.823Z,1.75
2018-07-09T23:27:21.625Z,1.60
2018-07-09T23:29:49.570Z,1.60
2018-07-09T23:32:17.559Z,1.70
2018-07-09T23:34:45.439Z,1.55
2018-07-09T23:37:13.024Z,1.50
2018-07-09T23:39:40.809Z,1.62
2018-07-09T23:42:08.693Z,1.42
2018-07-09T23:44:36.544Z,1.67
2018-07-09T23:47:04.444Z,1.70
2018-07-09T23:49:32.409Z,1.60
2018-07-09T23:52:00.217Z,1.92
2018-07-09T23:54:28.063Z,1.52
2018-07-09T23:58:05.982Z,1.50
